sensor_id;sensor_type;location;lat;lon;timestamp;temperature;humidity
39931;DHT22;26635;-35.248;149.138;2023-05-10T00:00:46;9.70;86.60
39931;DHT22;26635;-35.248;149.138;2023-05-10T00:03:17;9.90;85.70
39931;DHT22;26635;-35.248;149.138;2023-05-10T00:05:49;10.00;85.70
39931;DHT22;26635;-35.248;149.138;2023-05-10T00:08:26;10.10;84.30
39931;DHT22;26635;-35.248;149.138;2023-05-10T00:10:59;10.20;84.20
39931;DHT22;26635;-35.248;149.138;2023-05-10T00:13:31;10.40;84.30
39931;DHT22;26635;-35.248;149.138;2023-05-10T00:16:02;10.50;84.00
39931;DHT22;26635;-35.248;149.138;2023-05-10T00:18:33;10.60;83.60
39931;DHT22;26635;-35.248;149.138;2023-05-10T00:21:04;10.80;83.40
39931;DHT22;26635;-35.248;149.138;2023-05-10T00:23:35;10.90;83.30
39931;DHT22;26635;-35.248;149.138;2023-05-10T00:26:06;11.10;82.00
39931;DHT22;26635;-35.248;149.138;2023-05-10T00:28:38;11.20;82.00
39931;DHT22;26635;-35.248;149.138;2023-05-10T00:31:14;11.30;81.70
39931;DHT22;26635;-35.248;149.138;2023-05-10T00:33:46;11.40;81.00
39931;DHT22;26635;-35.248;149.138;2023-05-10T00:36:17;11.50;79.20
39931;DHT22;26635;-35.248;149.138;2023-05-10T00:38:48;11.60;79.50
39931;DHT22;26635;-35.248;149.138;2023-05-10T00:41:19;11.70;79.00
39931;DHT22;26635;-35.248;149.138;2023-05-10T00:43:51;11.80;79.20
39931;DHT22;26635;-35.248;149.138;2023-05-10T00:46:21;11.90;77.90
39931;DHT22;26635;-35.248;149.138;2023-05-10T00:48:53;12.00;76.40
39931;DHT22;26635;-35.248;149.138;2023-05-10T00:51:24;12.10;76.20
39931;DHT22;26635;-35.248;149.138;2023-05-10T00:53:55;12.20;74.10
39931;DHT22;26635;-35.248;149.138;2023-05-10T00:56:26;12.30;74.50
39931;DHT22;26635;-35.248;149.138;2023-05-10T00:59:00;12.40;74.50
39931;DHT22;26635;-35.248;149.138;2023-05-10T01:01:32;12.50;75.10
39931;DHT22;26635;-35.248;149.138;2023-05-10T01:04:03;12.60;74.90
39931;DHT22;26635;-35.248;149.138;2023-05-10T01:06:34;12.70;73.50
39931;DHT22;26635;-35.248;149.138;2023-05-10T01:09:05;12.70;73.50
39931;DHT22;26635;-35.248;149.138;2023-05-10T01:11:38;12.80;74.10
39931;DHT22;26635;-35.248;149.138;2023-05-10T01:14:10;12.90;72.40
39931;DHT22;26635;-35.248;149.138;2023-05-10T01:16:41;13.00;72.60
39931;DHT22;26635;-35.248;149.138;2023-05-10T01:19:33;13.10;72.00
39931;DHT22;26635;-35.248;149.138;2023-05-10T01:27:40;13.40;69.20
39931;DHT22;26635;-35.248;149.138;2023-05-10T01:30:24;13.40;69.00
39931;DHT22;26635;-35.248;149.138;2023-05-10T01:36:02;13.50;68.90
39931;DHT22;26635;-35.248;149.138;2023-05-10T01:50:03;13.90;68.30
39931;DHT22;26635;-35.248;149.138;2023-05-10T01:52:42;14.00;67.80
39931;DHT22;26635;-35.248;149.138;2023-05-10T01:55:20;14.10;67.90
39931;DHT22;26635;-35.248;149.138;2023-05-10T01:57:58;14.20;66.80
39931;DHT22;26635;-35.248;149.138;2023-05-10T02:00:31;14.20;66.00
39931;DHT22;26635;-35.248;149.138;2023-05-10T02:03:06;14.30;68.20
39931;DHT22;26635;-35.248;149.138;2023-05-10T02:05:39;14.30;67.60
39931;DHT22;26635;-35.248;149.138;2023-05-10T02:08:10;14.40;65.70
39931;DHT22;26635;-35.248;149.138;2023-05-10T02:10:44;14.40;65.20
39931;DHT22;26635;-35.248;149.138;2023-05-10T02:13:17;14.40;64.20
39931;DHT22;26635;-35.248;149.138;2023-05-10T02:15:50;14.40;64.90
39931;DHT22;26635;-35.248;149.138;2023-05-10T02:18:23;14.50;63.90
39931;DHT22;26635;-35.248;149.138;2023-05-10T02:20:55;14.50;63.70
39931;DHT22;26635;-35.248;149.138;2023-05-10T02:23:26;14.50;64.20
39931;DHT22;26635;-35.248;149.138;2023-05-10T02:26:00;14.60;63.50
39931;DHT22;26635;-35.248;149.138;2023-05-10T02:28:33;14.70;62.60
39931;DHT22;26635;-35.248;149.138;2023-05-10T02:31:05;14.80;60.40
39931;DHT22;26635;-35.248;149.138;2023-05-10T02:33:43;14.80;62.00
39931;DHT22;26635;-35.248;149.138;2023-05-10T02:36:15;14.80;62.40
39931;DHT22;26635;-35.248;149.138;2023-05-10T02:38:47;14.80;61.50
39931;DHT22;26635;-35.248;149.138;2023-05-10T02:41:22;14.80;61.40
39931;DHT22;26635;-35.248;149.138;2023-05-10T02:43:57;14.80;60.30
39931;DHT22;26635;-35.248;149.138;2023-05-10T02:46:48;14.80;61.50
39931;DHT22;26635;-35.248;149.138;2023-05-10T02:49:20;14.80;62.10
39931;DHT22;26635;-35.248;149.138;2023-05-10T02:51:58;14.90;60.80
39931;DHT22;26635;-35.248;149.138;2023-05-10T02:54:34;15.00;62.90
39931;DHT22;26635;-35.248;149.138;2023-05-10T02:57:10;15.10;62.90
39931;DHT22;26635;-35.248;149.138;2023-05-10T02:59:46;15.00;60.70
39931;DHT22;26635;-35.248;149.138;2023-05-10T03:02:17;15.10;62.40
39931;DHT22;26635;-35.248;149.138;2023-05-10T03:04:49;15.10;62.90
39931;DHT22;26635;-35.248;149.138;2023-05-10T03:07:20;15.20;60.90
39931;DHT22;26635;-35.248;149.138;2023-05-10T03:09:51;15.20;61.30
39931;DHT22;26635;-35.248;149.138;2023-05-10T03:18:23;15.30;58.70
39931;DHT22;26635;-35.248;149.138;2023-05-10T03:21:04;15.40;59.90
39931;DHT22;26635;-35.248;149.138;2023-05-10T03:23:51;15.40;61.20
39931;DHT22;26635;-35.248;149.138;2023-05-10T03:26:27;15.50;59.40
39931;DHT22;26635;-35.248;149.138;2023-05-10T03:29:01;15.50;59.80
39931;DHT22;26635;-35.248;149.138;2023-05-10T03:31:34;15.50;62.00
39931;DHT22;26635;-35.248;149.138;2023-05-10T03:34:06;15.60;62.50
39931;DHT22;26635;-35.248;149.138;2023-05-10T03:36:36;15.60;61.20
39931;DHT22;26635;-35.248;149.138;2023-05-10T03:39:08;15.70;59.20
39931;DHT22;26635;-35.248;149.138;2023-05-10T03:41:38;15.70;59.30
39931;DHT22;26635;-35.248;149.138;2023-05-10T03:44:08;15.70;60.00
39931;DHT22;26635;-35.248;149.138;2023-05-10T03:46:39;15.70;60.00
39931;DHT22;26635;-35.248;149.138;2023-05-10T03:49:09;15.70;61.00
39931;DHT22;26635;-35.248;149.138;2023-05-10T03:51:41;15.60;59.60
39931;DHT22;26635;-35.248;149.138;2023-05-10T03:54:12;15.50;59.50
39931;DHT22;26635;-35.248;149.138;2023-05-10T03:56:42;15.50;60.10
39931;DHT22;26635;-35.248;149.138;2023-05-10T03:59:13;15.60;60.30
39931;DHT22;26635;-35.248;149.138;2023-05-10T04:01:46;15.70;60.60
39931;DHT22;26635;-35.248;149.138;2023-05-10T04:04:17;15.70;60.90
39931;DHT22;26635;-35.248;149.138;2023-05-10T04:06:50;15.70;61.40
39931;DHT22;26635;-35.248;149.138;2023-05-10T04:09:21;15.80;61.50
39931;DHT22;26635;-35.248;149.138;2023-05-10T04:11:52;15.80;60.10
39931;DHT22;26635;-35.248;149.138;2023-05-10T04:14:22;15.80;60.30
39931;DHT22;26635;-35.248;149.138;2023-05-10T04:16:53;15.80;60.70
39931;DHT22;26635;-35.248;149.138;2023-05-10T04:19:32;15.80;59.20
39931;DHT22;26635;-35.248;149.138;2023-05-10T04:22:04;15.90;59.20
39931;DHT22;26635;-35.248;149.138;2023-05-10T04:24:35;15.90;57.60
39931;DHT22;26635;-35.248;149.138;2023-05-10T04:27:05;16.00;58.70
39931;DHT22;26635;-35.248;149.138;2023-05-10T04:29:36;16.00;57.70
39931;DHT22;26635;-35.248;149.138;2023-05-10T04:32:08;16.00;58.60
39931;DHT22;26635;-35.248;149.138;2023-05-10T04:34:40;16.10;60.50
39931;DHT22;26635;-35.248;149.138;2023-05-10T04:37:10;16.00;59.40
39931;DHT22;26635;-35.248;149.138;2023-05-10T04:39:41;16.00;57.80
39931;DHT22;26635;-35.248;149.138;2023-05-10T04:42:13;15.90;59.00
39931;DHT22;26635;-35.248;149.138;2023-05-10T04:44:45;15.80;59.00
39931;DHT22;26635;-35.248;149.138;2023-05-10T04:47:16;15.80;60.60
39931;DHT22;26635;-35.248;149.138;2023-05-10T04:49:47;15.80;59.80
39931;DHT22;26635;-35.248;149.138;2023-05-10T04:52:18;15.80;59.90
39931;DHT22;26635;-35.248;149.138;2023-05-10T04:54:50;15.70;60.10
39931;DHT22;26635;-35.248;149.138;2023-05-10T04:57:22;15.70;59.50
39931;DHT22;26635;-35.248;149.138;2023-05-10T04:59:53;15.80;60.30
39931;DHT22;26635;-35.248;149.138;2023-05-10T05:02:24;15.70;61.50
39931;DHT22;26635;-35.248;149.138;2023-05-10T05:04:56;15.70;61.50
39931;DHT22;26635;-35.248;149.138;2023-05-10T05:07:29;15.70;60.20
39931;DHT22;26635;-35.248;149.138;2023-05-10T05:10:01;15.60;59.70
39931;DHT22;26635;-35.248;149.138;2023-05-10T05:12:32;15.60;60.60
39931;DHT22;26635;-35.248;149.138;2023-05-10T05:15:04;15.60;61.10
39931;DHT22;26635;-35.248;149.138;2023-05-10T05:17:36;15.60;63.10
39931;DHT22;26635;-35.248;149.138;2023-05-10T05:20:07;15.50;62.70
39931;DHT22;26635;-35.248;149.138;2023-05-10T05:22:38;15.60;61.30
39931;DHT22;26635;-35.248;149.138;2023-05-10T05:25:09;15.60;61.90
39931;DHT22;26635;-35.248;149.138;2023-05-10T05:27:41;15.60;61.60
39931;DHT22;26635;-35.248;149.138;2023-05-10T05:30:12;15.60;60.90
39931;DHT22;26635;-35.248;149.138;2023-05-10T05:32:43;15.60;61.20
39931;DHT22;26635;-35.248;149.138;2023-05-10T05:35:14;15.50;60.90
39931;DHT22;26635;-35.248;149.138;2023-05-10T05:37:45;15.50;61.60
39931;DHT22;26635;-35.248;149.138;2023-05-10T05:40:16;15.50;62.30
39931;DHT22;26635;-35.248;149.138;2023-05-10T05:42:47;15.50;63.60
39931;DHT22;26635;-35.248;149.138;2023-05-10T05:45:18;15.40;64.30
39931;DHT22;26635;-35.248;149.138;2023-05-10T05:47:52;15.40;64.60
39931;DHT22;26635;-35.248;149.138;2023-05-10T05:50:22;15.40;63.00
39931;DHT22;26635;-35.248;149.138;2023-05-10T05:52:53;15.30;64.10
39931;DHT22;26635;-35.248;149.138;2023-05-10T05:55:23;15.20;64.30
39931;DHT22;26635;-35.248;149.138;2023-05-10T05:57:56;15.20;65.20
39931;DHT22;26635;-35.248;149.138;2023-05-10T06:00:28;15.10;65.40
39931;DHT22;26635;-35.248;149.138;2023-05-10T06:03:00;15.00;65.30
39931;DHT22;26635;-35.248;149.138;2023-05-10T06:05:32;14.90;66.10
39931;DHT22;26635;-35.248;149.138;2023-05-10T06:08:03;14.90;65.30
39931;DHT22;26635;-35.248;149.138;2023-05-10T06:10:39;14.80;66.20
39931;DHT22;26635;-35.248;149.138;2023-05-10T06:13:09;14.70;66.70
39931;DHT22;26635;-35.248;149.138;2023-05-10T06:15:41;14.70;66.30
39931;DHT22;26635;-35.248;149.138;2023-05-10T06:18:12;14.60;66.90
39931;DHT22;26635;-35.248;149.138;2023-05-10T06:20:43;14.50;67.10
39931;DHT22;26635;-35.248;149.138;2023-05-10T06:23:16;14.40;67.30
39931;DHT22;26635;-35.248;149.138;2023-05-10T06:25:48;14.30;67.90
39931;DHT22;26635;-35.248;149.138;2023-05-10T06:28:20;14.30;67.90
39931;DHT22;26635;-35.248;149.138;2023-05-10T06:30:51;14.20;67.20
39931;DHT22;26635;-35.248;149.138;2023-05-10T06:33:22;14.10;67.70
39931;DHT22;26635;-35.248;149.138;2023-05-10T06:35:53;14.00;67.40
39931;DHT22;26635;-35.248;149.138;2023-05-10T06:38:27;13.90;67.80
39931;DHT22;26635;-35.248;149.138;2023-05-10T06:40:58;13.90;67.20
39931;DHT22;26635;-35.248;149.138;2023-05-10T06:43:30;13.80;67.90
39931;DHT22;26635;-35.248;149.138;2023-05-10T06:46:02;13.80;68.00
39931;DHT22;26635;-35.248;149.138;2023-05-10T06:48:34;13.70;68.90
39931;DHT22;26635;-35.248;149.138;2023-05-10T06:51:06;13.60;69.10
39931;DHT22;26635;-35.248;149.138;2023-05-10T06:53:36;13.50;69.50
39931;DHT22;26635;-35.248;149.138;2023-05-10T06:56:08;13.40;69.30
39931;DHT22;26635;-35.248;149.138;2023-05-10T06:58:38;13.30;69.90
39931;DHT22;26635;-35.248;149.138;2023-05-10T07:01:10;13.20;70.20
39931;DHT22;26635;-35.248;149.138;2023-05-10T07:03:41;13.10;70.90
39931;DHT22;26635;-35.248;149.138;2023-05-10T07:06:12;13.00;70.40
39931;DHT22;26635;-35.248;149.138;2023-05-10T07:08:59;12.90;71.20
39931;DHT22;26635;-35.248;149.138;2023-05-10T07:11:30;12.80;72.00
39931;DHT22;26635;-35.248;149.138;2023-05-10T07:14:01;12.80;72.90
39931;DHT22;26635;-35.248;149.138;2023-05-10T07:16:32;12.70;73.30
39931;DHT22;26635;-35.248;149.138;2023-05-10T07:19:03;12.50;74.40
39931;DHT22;26635;-35.248;149.138;2023-05-10T07:21:35;12.40;74.00
39931;DHT22;26635;-35.248;149.138;2023-05-10T07:24:07;12.30;74.40
39931;DHT22;26635;-35.248;149.138;2023-05-10T07:26:38;12.20;75.10
39931;DHT22;26635;-35.248;149.138;2023-05-10T07:29:09;12.10;75.80
39931;DHT22;26635;-35.248;149.138;2023-05-10T07:31:40;11.90;77.10
39931;DHT22;26635;-35.248;149.138;2023-05-10T07:34:12;11.90;77.60
39931;DHT22;26635;-35.248;149.138;2023-05-10T07:36:43;11.70;78.20
39931;DHT22;26635;-35.248;149.138;2023-05-10T07:39:13;11.60;78.50
39931;DHT22;26635;-35.248;149.138;2023-05-10T07:41:54;11.50;77.90
39931;DHT22;26635;-35.248;149.138;2023-05-10T07:44:25;11.30;78.60
39931;DHT22;26635;-35.248;149.138;2023-05-10T07:46:55;11.10;79.70
39931;DHT22;26635;-35.248;149.138;2023-05-10T07:49:26;11.00;80.30
39931;DHT22;26635;-35.248;149.138;2023-05-10T07:51:56;11.00;80.40
39931;DHT22;26635;-35.248;149.138;2023-05-10T07:54:27;10.90;80.10
39931;DHT22;26635;-35.248;149.138;2023-05-10T07:56:57;10.80;80.50
39931;DHT22;26635;-35.248;149.138;2023-05-10T07:59:29;10.70;80.80
39931;DHT22;26635;-35.248;149.138;2023-05-10T08:01:59;10.70;81.40
39931;DHT22;26635;-35.248;149.138;2023-05-10T08:04:30;10.70;81.60
39931;DHT22;26635;-35.248;149.138;2023-05-10T08:07:01;10.60;82.00
39931;DHT22;26635;-35.248;149.138;2023-05-10T08:09:31;10.50;82.00
39931;DHT22;26635;-35.248;149.138;2023-05-10T08:12:02;10.50;82.60
39931;DHT22;26635;-35.248;149.138;2023-05-10T08:14:32;10.40;82.90
39931;DHT22;26635;-35.248;149.138;2023-05-10T08:17:04;10.30;83.50
39931;DHT22;26635;-35.248;149.138;2023-05-10T08:19:34;10.20;83.50
39931;DHT22;26635;-35.248;149.138;2023-05-10T08:22:05;10.20;83.80
39931;DHT22;26635;-35.248;149.138;2023-05-10T08:24:36;10.10;83.90
39931;DHT22;26635;-35.248;149.138;2023-05-10T08:27:08;10.00;85.10
39931;DHT22;26635;-35.248;149.138;2023-05-10T08:29:38;10.00;86.00
39931;DHT22;26635;-35.248;149.138;2023-05-10T08:32:16;9.90;85.50
39931;DHT22;26635;-35.248;149.138;2023-05-10T08:34:48;9.80;85.30
39931;DHT22;26635;-35.248;149.138;2023-05-10T08:37:20;9.80;85.40
39931;DHT22;26635;-35.248;149.138;2023-05-10T08:39:52;9.70;85.50
39931;DHT22;26635;-35.248;149.138;2023-05-10T08:42:24;9.70;85.50
39931;DHT22;26635;-35.248;149.138;2023-05-10T08:44:58;9.70;86.50
39931;DHT22;26635;-35.248;149.138;2023-05-10T08:47:29;9.60;85.50
39931;DHT22;26635;-35.248;149.138;2023-05-10T08:50:03;9.60;85.70
39931;DHT22;26635;-35.248;149.138;2023-05-10T08:52:37;9.50;86.60
39931;DHT22;26635;-35.248;149.138;2023-05-10T08:55:10;9.40;86.30
39931;DHT22;26635;-35.248;149.138;2023-05-10T08:57:41;9.30;86.30
39931;DHT22;26635;-35.248;149.138;2023-05-10T09:00:13;9.30;87.30
39931;DHT22;26635;-35.248;149.138;2023-05-10T09:02:46;9.20;88.00
39931;DHT22;26635;-35.248;149.138;2023-05-10T09:05:18;9.10;88.40
39931;DHT22;26635;-35.248;149.138;2023-05-10T09:07:49;9.00;88.90
39931;DHT22;26635;-35.248;149.138;2023-05-10T09:10:20;9.00;89.20
39931;DHT22;26635;-35.248;149.138;2023-05-10T09:12:52;9.00;88.60
39931;DHT22;26635;-35.248;149.138;2023-05-10T09:15:26;8.90;88.00
39931;DHT22;26635;-35.248;149.138;2023-05-10T09:17:57;8.90;88.10
39931;DHT22;26635;-35.248;149.138;2023-05-10T09:20:29;8.90;88.50
39931;DHT22;26635;-35.248;149.138;2023-05-10T09:23:01;8.80;89.10
39931;DHT22;26635;-35.248;149.138;2023-05-10T09:25:31;8.70;90.10
39931;DHT22;26635;-35.248;149.138;2023-05-10T09:28:07;8.70;90.10
39931;DHT22;26635;-35.248;149.138;2023-05-10T09:30:41;8.60;90.30
39931;DHT22;26635;-35.248;149.138;2023-05-10T09:33:12;8.50;90.30
39931;DHT22;26635;-35.248;149.138;2023-05-10T09:35:43;8.50;90.10
39931;DHT22;26635;-35.248;149.138;2023-05-10T09:38:14;8.50;90.00
39931;DHT22;26635;-35.248;149.138;2023-05-10T09:40:53;8.50;90.20
39931;DHT22;26635;-35.248;149.138;2023-05-10T09:43:25;8.50;90.20
39931;DHT22;26635;-35.248;149.138;2023-05-10T09:45:58;8.40;90.10
39931;DHT22;26635;-35.248;149.138;2023-05-10T09:48:32;8.40;90.40
39931;DHT22;26635;-35.248;149.138;2023-05-10T09:51:03;8.30;90.80
39931;DHT22;26635;-35.248;149.138;2023-05-10T09:53:34;8.20;90.70
39931;DHT22;26635;-35.248;149.138;2023-05-10T09:56:05;8.20;91.10
39931;DHT22;26635;-35.248;149.138;2023-05-10T09:58:37;8.10;90.80
39931;DHT22;26635;-35.248;149.138;2023-05-10T10:01:12;8.10;90.80
39931;DHT22;26635;-35.248;149.138;2023-05-10T10:03:43;8.10;91.50
39931;DHT22;26635;-35.248;149.138;2023-05-10T10:06:19;8.00;90.90
39931;DHT22;26635;-35.248;149.138;2023-05-10T10:08:57;7.90;90.80
39931;DHT22;26635;-35.248;149.138;2023-05-10T10:11:28;7.90;91.00
39931;DHT22;26635;-35.248;149.138;2023-05-10T10:14:00;7.80;91.00
39931;DHT22;26635;-35.248;149.138;2023-05-10T10:16:32;7.80;90.70
39931;DHT22;26635;-35.248;149.138;2023-05-10T10:19:03;7.80;90.50
39931;DHT22;26635;-35.248;149.138;2023-05-10T10:21:34;7.80;90.60
39931;DHT22;26635;-35.248;149.138;2023-05-10T10:24:05;7.80;91.10
39931;DHT22;26635;-35.248;149.138;2023-05-10T10:26:37;7.70;91.10
39931;DHT22;26635;-35.248;149.138;2023-05-10T10:35:19;7.50;91.30
39931;DHT22;26635;-35.248;149.138;2023-05-10T10:37:50;7.50;91.50
39931;DHT22;26635;-35.248;149.138;2023-05-10T10:42:56;7.40;90.30
39931;DHT22;26635;-35.248;149.138;2023-05-10T10:45:30;7.30;90.60
39931;DHT22;26635;-35.248;149.138;2023-05-10T10:48:20;7.20;91.30
39931;DHT22;26635;-35.248;149.138;2023-05-10T10:50:58;7.20;91.40
39931;DHT22;26635;-35.248;149.138;2023-05-10T10:53:29;7.10;91.60
39931;DHT22;26635;-35.248;149.138;2023-05-10T10:56:12;7.00;91.50
39931;DHT22;26635;-35.248;149.138;2023-05-10T10:58:50;7.00;91.70
39931;DHT22;26635;-35.248;149.138;2023-05-10T11:01:23;7.00;91.70
39931;DHT22;26635;-35.248;149.138;2023-05-10T11:06:36;7.00;91.70
39931;DHT22;26635;-35.248;149.138;2023-05-10T11:09:08;6.90;91.80
39931;DHT22;26635;-35.248;149.138;2023-05-10T11:11:54;6.80;91.30
39931;DHT22;26635;-35.248;149.138;2023-05-10T11:14:25;6.70;92.20
39931;DHT22;26635;-35.248;149.138;2023-05-10T11:16:59;6.70;92.40
39931;DHT22;26635;-35.248;149.138;2023-05-10T11:19:33;6.70;92.20
39931;DHT22;26635;-35.248;149.138;2023-05-10T11:24:40;6.70;92.30
39931;DHT22;26635;-35.248;149.138;2023-05-10T11:27:28;6.70;92.10
39931;DHT22;26635;-35.248;149.138;2023-05-10T11:29:59;6.70;92.10
39931;DHT22;26635;-35.248;149.138;2023-05-10T11:32:32;6.60;92.60
39931;DHT22;26635;-35.248;149.138;2023-05-10T11:35:12;6.60;92.10
39931;DHT22;26635;-35.248;149.138;2023-05-10T11:37:48;6.60;92.10
39931;DHT22;26635;-35.248;149.138;2023-05-10T11:40:21;6.60;92.10
39931;DHT22;26635;-35.248;149.138;2023-05-10T11:42:56;6.50;92.10
39931;DHT22;26635;-35.248;149.138;2023-05-10T11:45:33;6.50;92.20
39931;DHT22;26635;-35.248;149.138;2023-05-10T11:48:05;6.60;93.10
39931;DHT22;26635;-35.248;149.138;2023-05-10T11:50:39;6.50;92.60
39931;DHT22;26635;-35.248;149.138;2023-05-10T11:53:16;6.50;92.10
39931;DHT22;26635;-35.248;149.138;2023-05-10T11:55:47;6.50;92.10
39931;DHT22;26635;-35.248;149.138;2023-05-10T11:58:18;6.50;92.30
39931;DHT22;26635;-35.248;149.138;2023-05-10T12:00:51;6.40;92.40
39931;DHT22;26635;-35.248;149.138;2023-05-10T12:03:22;6.40;92.10
39931;DHT22;26635;-35.248;149.138;2023-05-10T12:05:56;6.30;92.00
39931;DHT22;26635;-35.248;149.138;2023-05-10T12:08:28;6.30;92.10
39931;DHT22;26635;-35.248;149.138;2023-05-10T12:11:08;6.30;93.10
39931;DHT22;26635;-35.248;149.138;2023-05-10T12:13:44;6.30;92.30
39931;DHT22;26635;-35.248;149.138;2023-05-10T12:16:28;6.20;92.60
39931;DHT22;26635;-35.248;149.138;2023-05-10T12:19:00;6.30;93.20
39931;DHT22;26635;-35.248;149.138;2023-05-10T12:21:32;6.30;93.00
39931;DHT22;26635;-35.248;149.138;2023-05-10T12:24:04;6.30;93.50
39931;DHT22;26635;-35.248;149.138;2023-05-10T12:26:45;6.30;92.70
39931;DHT22;26635;-35.248;149.138;2023-05-10T12:29:31;6.30;92.40
39931;DHT22;26635;-35.248;149.138;2023-05-10T12:32:02;6.20;92.30
39931;DHT22;26635;-35.248;149.138;2023-05-10T12:34:34;6.20;92.90
39931;DHT22;26635;-35.248;149.138;2023-05-10T12:37:09;6.20;92.60
39931;DHT22;26635;-35.248;149.138;2023-05-10T12:39:43;6.20;93.00
39931;DHT22;26635;-35.248;149.138;2023-05-10T12:42:15;6.20;92.50
39931;DHT22;26635;-35.248;149.138;2023-05-10T12:44:48;6.10;92.70
39931;DHT22;26635;-35.248;149.138;2023-05-10T12:47:20;6.20;92.50
39931;DHT22;26635;-35.248;149.138;2023-05-10T12:49:52;6.10;92.70
39931;DHT22;26635;-35.248;149.138;2023-05-10T12:52:24;6.20;92.50
39931;DHT22;26635;-35.248;149.138;2023-05-10T12:54:58;6.20;92.90
39931;DHT22;26635;-35.248;149.138;2023-05-10T12:57:29;6.20;92.80
39931;DHT22;26635;-35.248;149.138;2023-05-10T13:00:01;6.20;92.90
39931;DHT22;26635;-35.248;149.138;2023-05-10T13:02:33;6.20;93.00
39931;DHT22;26635;-35.248;149.138;2023-05-10T13:05:05;6.20;93.60
39931;DHT22;26635;-35.248;149.138;2023-05-10T13:07:38;6.20;93.00
39931;DHT22;26635;-35.248;149.138;2023-05-10T13:10:09;6.20;93.00
39931;DHT22;26635;-35.248;149.138;2023-05-10T13:12:43;6.30;92.80
39931;DHT22;26635;-35.248;149.138;2023-05-10T13:15:14;6.30;93.00
39931;DHT22;26635;-35.248;149.138;2023-05-10T13:17:44;6.20;92.90
39931;DHT22;26635;-35.248;149.138;2023-05-10T13:20:15;6.20;93.50
39931;DHT22;26635;-35.248;149.138;2023-05-10T13:22:46;6.20;93.10
39931;DHT22;26635;-35.248;149.138;2023-05-10T13:25:19;6.20;93.20
39931;DHT22;26635;-35.248;149.138;2023-05-10T13:27:50;6.20;93.00
39931;DHT22;26635;-35.248;149.138;2023-05-10T13:30:23;6.20;93.00
39931;DHT22;26635;-35.248;149.138;2023-05-10T13:32:54;6.20;93.00
39931;DHT22;26635;-35.248;149.138;2023-05-10T13:35:26;6.10;92.90
39931;DHT22;26635;-35.248;149.138;2023-05-10T13:37:57;6.10;93.10
39931;DHT22;26635;-35.248;149.138;2023-05-10T13:40:28;6.10;92.90
39931;DHT22;26635;-35.248;149.138;2023-05-10T13:42:59;6.20;93.00
39931;DHT22;26635;-35.248;149.138;2023-05-10T13:45:30;6.20;93.00
39931;DHT22;26635;-35.248;149.138;2023-05-10T13:48:00;6.10;93.30
39931;DHT22;26635;-35.248;149.138;2023-05-10T13:50:33;6.00;93.50
39931;DHT22;26635;-35.248;149.138;2023-05-10T13:53:03;6.00;92.90
39931;DHT22;26635;-35.248;149.138;2023-05-10T13:55:35;6.00;92.80
39931;DHT22;26635;-35.248;149.138;2023-05-10T13:58:05;5.90;93.40
39931;DHT22;26635;-35.248;149.138;2023-05-10T14:00:35;5.90;93.30
39931;DHT22;26635;-35.248;149.138;2023-05-10T14:03:06;6.00;93.00
39931;DHT22;26635;-35.248;149.138;2023-05-10T14:05:39;5.90;93.30
39931;DHT22;26635;-35.248;149.138;2023-05-10T14:08:09;5.90;93.40
39931;DHT22;26635;-35.248;149.138;2023-05-10T14:10:40;5.90;93.40
39931;DHT22;26635;-35.248;149.138;2023-05-10T14:13:11;5.90;93.50
39931;DHT22;26635;-35.248;149.138;2023-05-10T14:15:42;5.90;94.00
39931;DHT22;26635;-35.248;149.138;2023-05-10T14:18:14;5.90;93.50
39931;DHT22;26635;-35.248;149.138;2023-05-10T14:20:44;5.90;93.20
39931;DHT22;26635;-35.248;149.138;2023-05-10T14:23:15;5.90;93.40
39931;DHT22;26635;-35.248;149.138;2023-05-10T14:25:47;5.90;93.60
39931;DHT22;26635;-35.248;149.138;2023-05-10T14:28:18;5.90;93.50
39931;DHT22;26635;-35.248;149.138;2023-05-10T14:30:49;5.90;93.70
39931;DHT22;26635;-35.248;149.138;2023-05-10T14:33:20;5.80;93.50
39931;DHT22;26635;-35.248;149.138;2023-05-10T14:35:50;5.80;93.40
39931;DHT22;26635;-35.248;149.138;2023-05-10T14:38:29;5.80;93.20
39931;DHT22;26635;-35.248;149.138;2023-05-10T14:40:59;5.80;93.20
39931;DHT22;26635;-35.248;149.138;2023-05-10T14:43:30;5.80;93.00
39931;DHT22;26635;-35.248;149.138;2023-05-10T14:46:00;5.90;92.90
39931;DHT22;26635;-35.248;149.138;2023-05-10T14:48:30;5.80;92.90
39931;DHT22;26635;-35.248;149.138;2023-05-10T14:51:01;5.80;93.20
39931;DHT22;26635;-35.248;149.138;2023-05-10T14:53:31;5.70;93.20
39931;DHT22;26635;-35.248;149.138;2023-05-10T14:56:02;5.70;93.30
39931;DHT22;26635;-35.248;149.138;2023-05-10T14:58:32;5.70;93.00
39931;DHT22;26635;-35.248;149.138;2023-05-10T15:01:03;5.70;92.90
39931;DHT22;26635;-35.248;149.138;2023-05-10T15:03:33;5.60;93.40
39931;DHT22;26635;-35.248;149.138;2023-05-10T15:06:04;5.60;93.80
39931;DHT22;26635;-35.248;149.138;2023-05-10T15:08:35;5.50;93.80
39931;DHT22;26635;-35.248;149.138;2023-05-10T15:11:05;5.50;93.90
39931;DHT22;26635;-35.248;149.138;2023-05-10T15:13:36;5.50;94.10
39931;DHT22;26635;-35.248;149.138;2023-05-10T15:16:06;5.50;95.20
39931;DHT22;26635;-35.248;149.138;2023-05-10T15:18:37;5.50;94.80
39931;DHT22;26635;-35.248;149.138;2023-05-10T15:21:08;5.60;94.50
39931;DHT22;26635;-35.248;149.138;2023-05-10T15:23:39;5.60;95.30
39931;DHT22;26635;-35.248;149.138;2023-05-10T15:26:10;5.70;94.50
39931;DHT22;26635;-35.248;149.138;2023-05-10T15:28:40;5.70;94.40
39931;DHT22;26635;-35.248;149.138;2023-05-10T15:31:10;5.80;95.70
39931;DHT22;26635;-35.248;149.138;2023-05-10T15:33:40;5.90;95.20
39931;DHT22;26635;-35.248;149.138;2023-05-10T15:36:11;6.00;94.90
39931;DHT22;26635;-35.248;149.138;2023-05-10T15:38:41;6.10;95.00
39931;DHT22;26635;-35.248;149.138;2023-05-10T15:41:11;6.20;95.00
39931;DHT22;26635;-35.248;149.138;2023-05-10T15:43:42;6.20;94.90
39931;DHT22;26635;-35.248;149.138;2023-05-10T15:46:12;6.30;94.70
39931;DHT22;26635;-35.248;149.138;2023-05-10T15:48:43;6.40;95.70
39931;DHT22;26635;-35.248;149.138;2023-05-10T15:51:13;6.40;94.90
39931;DHT22;26635;-35.248;149.138;2023-05-10T15:53:44;6.50;94.30
39931;DHT22;26635;-35.248;149.138;2023-05-10T15:56:33;6.50;94.10
39931;DHT22;26635;-35.248;149.138;2023-05-10T15:59:05;6.50;94.30
39931;DHT22;26635;-35.248;149.138;2023-05-10T16:01:37;6.60;94.40
39931;DHT22;26635;-35.248;149.138;2023-05-10T16:04:07;6.60;94.20
39931;DHT22;26635;-35.248;149.138;2023-05-10T16:06:38;6.70;95.10